sensor_id;sensor_type;location;lat;lon;timestamp;temperature;humidity
24226;DHT22;51462;51.422;5.514;2023-04-01T00:00:55;10.50;99.90
24226;DHT22;51462;51.422;5.514;2023-04-01T00:03:22;10.20;99.90
24226;DHT22;51462;51.422;5.514;2023-04-01T00:05:48;10.30;99.90
24226;DHT22;51462;51.422;5.514;2023-04-01T00:08:14;10.40;99.90
24226;DHT22;51462;51.422;5.514;2023-04-01T00:10:40;10.40;99.90
24226;DHT22;51462;51.422;5.514;2023-04-01T00:13:06;10.40;99.90
24226;DHT22;51462;51.422;5.514;2023-04-01T00:15:32;10.30;99.90
24226;DHT22;51462;51.422;5.514;2023-04-01T00:17:58;10.60;99.90
24226;DHT22;51462;51.422;5.514;2023-04-01T00:20:24;10.40;99.90
24226;DHT22;51462;51.422;5.514;2023-04-01T00:22:50;10.40;99.90
24226;DHT22;51462;51.422;5.514;2023-04-01T00:25:16;10.30;99.90
24226;DHT22;51462;51.422;5.514;2023-04-01T00:27:42;10.30;99.90
24226;DHT22;51462;51.422;5.514;2023-04-01T00:30:08;10.30;99.90
24226;DHT22;51462;51.422;5.514;2023-04-01T00:32:34;10.20;99.90
24226;DHT22;51462;51.422;5.514;2023-04-01T00:35:00;10.10;99.90
24226;DHT22;51462;51.422;5.514;2023-04-01T00:37:27;10.20;99.90
24226;DHT22;51462;51.422;5.514;2023-04-01T00:39:53;10.30;99.90
24226;DHT22;51462;51.422;5.514;2023-04-01T00:42:18;10.20;99.90
24226;DHT22;51462;51.422;5.514;2023-04-01T00:44:47;10.30;99.90
24226;DHT22;51462;51.422;5.514;2023-04-01T00:47:13;10.30;99.90
24226;DHT22;51462;51.422;5.514;2023-04-01T00:49:43;10.30;99.90
24226;DHT22;51462;51.422;5.514;2023-04-01T00:52:12;10.20;99.90
24226;DHT22;51462;51.422;5.514;2023-04-01T00:54:41;10.20;99.90
24226;DHT22;51462;51.422;5.514;2023-04-01T00:57:18;10.20;99.90
24226;DHT22;51462;51.422;5.514;2023-04-01T00:59:48;10.20;99.90
24226;DHT22;51462;51.422;5.514;2023-04-01T01:02:16;10.30;99.90
24226;DHT22;51462;51.422;5.514;2023-04-01T01:04:42;10.20;99.90
24226;DHT22;51462;51.422;5.514;2023-04-01T01:07:28;10.20;99.90
24226;DHT22;51462;51.422;5.514;2023-04-01T01:10:12;10.20;99.90
24226;DHT22;51462;51.422;5.514;2023-04-01T01:13:00;10.10;99.90
24226;DHT22;51462;51.422;5.514;2023-04-01T01:15:37;10.20;99.90
24226;DHT22;51462;51.422;5.514;2023-04-01T01:21:10;10.30;99.90
24226;DHT22;51462;51.422;5.514;2023-04-01T01:35:24;10.10;99.90
24226;DHT22;51462;51.422;5.514;2023-04-01T01:38:08;10.00;99.90
24226;DHT22;51462;51.422;5.514;2023-04-01T01:40:36;10.00;99.90
24226;DHT22;51462;51.422;5.514;2023-04-01T01:43:09;10.00;99.90
24226;DHT22;51462;51.422;5.514;2023-04-01T01:45:39;10.00;99.90
24226;DHT22;51462;51.422;5.514;2023-04-01T01:48:07;10.00;99.90
24226;DHT22;51462;51.422;5.514;2023-04-01T01:50:35;10.10;99.90
24226;DHT22;51462;51.422;5.514;2023-04-01T01:53:12;10.10;99.90
24226;DHT22;51462;51.422;5.514;2023-04-01T01:55:40;10.00;99.90
24226;DHT22;51462;51.422;5.514;2023-04-01T01:58:18;10.30;99.90
24226;DHT22;51462;51.422;5.514;2023-04-01T02:00:48;10.20;99.90
24226;DHT22;51462;51.422;5.514;2023-04-01T02:03:17;10.10;99.90
24226;DHT22;51462;51.422;5.514;2023-04-01T02:05:44;10.20;99.90
24226;DHT22;51462;51.422;5.514;2023-04-01T02:08:16;10.20;99.90
24226;DHT22;51462;51.422;5.514;2023-04-01T02:10:49;10.10;99.90
24226;DHT22;51462;51.422;5.514;2023-04-01T02:16:03;10.10;99.90
24226;DHT22;51462;51.422;5.514;2023-04-01T02:18:35;9.90;99.90
24226;DHT22;51462;51.422;5.514;2023-04-01T02:21:04;10.10;99.90
24226;DHT22;51462;51.422;5.514;2023-04-01T02:23:33;9.90;99.90
24226;DHT22;51462;51.422;5.514;2023-04-01T02:26:00;9.90;99.90
24226;DHT22;51462;51.422;5.514;2023-04-01T02:28:26;10.00;99.90
24226;DHT22;51462;51.422;5.514;2023-04-01T02:30:53;10.00;99.90
24226;DHT22;51462;51.422;5.514;2023-04-01T02:33:20;10.00;99.90
24226;DHT22;51462;51.422;5.514;2023-04-01T02:35:46;9.90;99.90
24226;DHT22;51462;51.422;5.514;2023-04-01T02:38:12;9.90;99.90
24226;DHT22;51462;51.422;5.514;2023-04-01T02:40:46;9.90;99.90
24226;DHT22;51462;51.422;5.514;2023-04-01T02:43:13;9.90;99.90
24226;DHT22;51462;51.422;5.514;2023-04-01T02:45:38;9.90;99.90
24226;DHT22;51462;51.422;5.514;2023-04-01T02:48:04;9.90;99.90
24226;DHT22;51462;51.422;5.514;2023-04-01T02:50:30;10.00;99.90
24226;DHT22;51462;51.422;5.514;2023-04-01T02:52:56;9.90;99.90
24226;DHT22;51462;51.422;5.514;2023-04-01T02:55:21;9.90;99.90
24226;DHT22;51462;51.422;5.514;2023-04-01T02:57:47;9.90;99.90
24226;DHT22;51462;51.422;5.514;2023-04-01T03:00:13;9.90;99.90
24226;DHT22;51462;51.422;5.514;2023-04-01T03:02:39;9.80;99.90
24226;DHT22;51462;51.422;5.514;2023-04-01T03:05:05;9.90;99.90
24226;DHT22;51462;51.422;5.514;2023-04-01T03:07:31;9.90;99.90
24226;DHT22;51462;51.422;5.514;2023-04-01T03:09:57;9.90;99.90
24226;DHT22;51462;51.422;5.514;2023-04-01T03:12:22;9.80;99.90
24226;DHT22;51462;51.422;5.514;2023-04-01T03:14:48;9.90;99.90
24226;DHT22;51462;51.422;5.514;2023-04-01T03:17:13;9.90;99.90
24226;DHT22;51462;51.422;5.514;2023-04-01T03:19:39;9.80;99.90
24226;DHT22;51462;51.422;5.514;2023-04-01T03:22:05;9.80;99.90
24226;DHT22;51462;51.422;5.514;2023-04-01T03:24:30;9.80;99.90
24226;DHT22;51462;51.422;5.514;2023-04-01T03:26:56;9.80;99.90
24226;DHT22;51462;51.422;5.514;2023-04-01T03:29:21;9.80;99.90
24226;DHT22;51462;51.422;5.514;2023-04-01T03:31:47;10.00;99.90
24226;DHT22;51462;51.422;5.514;2023-04-01T03:34:12;9.80;99.90
24226;DHT22;51462;51.422;5.514;2023-04-01T03:36:38;9.80;99.90
24226;DHT22;51462;51.422;5.514;2023-04-01T03:39:04;9.80;99.90
24226;DHT22;51462;51.422;5.514;2023-04-01T03:41:30;9.80;99.90
24226;DHT22;51462;51.422;5.514;2023-04-01T03:43:56;9.90;99.90
24226;DHT22;51462;51.422;5.514;2023-04-01T03:46:21;9.90;99.90
24226;DHT22;51462;51.422;5.514;2023-04-01T03:48:47;10.00;99.90
24226;DHT22;51462;51.422;5.514;2023-04-01T03:51:13;9.90;99.90
24226;DHT22;51462;51.422;5.514;2023-04-01T03:53:39;9.80;99.90
24226;DHT22;51462;51.422;5.514;2023-04-01T03:56:06;9.80;99.90
24226;DHT22;51462;51.422;5.514;2023-04-01T03:58:31;9.80;99.90
24226;DHT22;51462;51.422;5.514;2023-04-01T04:00:57;9.80;99.90
24226;DHT22;51462;51.422;5.514;2023-04-01T04:03:23;9.90;99.90
24226;DHT22;51462;51.422;5.514;2023-04-01T04:05:49;9.80;99.90
24226;DHT22;51462;51.422;5.514;2023-04-01T04:08:15;9.80;99.90
24226;DHT22;51462;51.422;5.514;2023-04-01T04:10:41;9.80;99.90
24226;DHT22;51462;51.422;5.514;2023-04-01T04:13:07;9.70;99.90
24226;DHT22;51462;51.422;5.514;2023-04-01T04:15:32;9.70;99.90
24226;DHT22;51462;51.422;5.514;2023-04-01T04:17:58;9.70;99.90
24226;DHT22;51462;51.422;5.514;2023-04-01T04:20:24;9.70;99.90
24226;DHT22;51462;51.422;5.514;2023-04-01T04:22:49;9.70;99.90
24226;DHT22;51462;51.422;5.514;2023-04-01T04:25:15;9.60;99.90
24226;DHT22;51462;51.422;5.514;2023-04-01T04:27:41;9.60;99.90
24226;DHT22;51462;51.422;5.514;2023-04-01T04:30:07;9.60;99.90
24226;DHT22;51462;51.422;5.514;2023-04-01T04:32:33;9.50;99.90
24226;DHT22;51462;51.422;5.514;2023-04-01T04:34:59;9.50;99.90
24226;DHT22;51462;51.422;5.514;2023-04-01T04:37:24;9.50;99.90
24226;DHT22;51462;51.422;5.514;2023-04-01T04:39:51;9.60;99.90
24226;DHT22;51462;51.422;5.514;2023-04-01T04:42:17;9.60;99.90
24226;DHT22;51462;51.422;5.514;2023-04-01T04:44:42;9.50;99.90
24226;DHT22;51462;51.422;5.514;2023-04-01T04:47:08;9.60;99.90
24226;DHT22;51462;51.422;5.514;2023-04-01T04:49:33;9.60;99.90
24226;DHT22;51462;51.422;5.514;2023-04-01T04:51:59;9.50;99.90
24226;DHT22;51462;51.422;5.514;2023-04-01T04:54:24;9.40;99.90
24226;DHT22;51462;51.422;5.514;2023-04-01T04:56:53;9.50;99.90
24226;DHT22;51462;51.422;5.514;2023-04-01T04:59:19;9.50;99.90
24226;DHT22;51462;51.422;5.514;2023-04-01T05:01:44;9.50;99.90
24226;DHT22;51462;51.422;5.514;2023-04-01T05:04:10;9.50;99.90
24226;DHT22;51462;51.422;5.514;2023-04-01T05:06:35;9.50;99.90
24226;DHT22;51462;51.422;5.514;2023-04-01T05:09:01;9.50;99.90
24226;DHT22;51462;51.422;5.514;2023-04-01T05:11:26;9.40;99.90
24226;DHT22;51462;51.422;5.514;2023-04-01T05:13:52;9.50;99.90
24226;DHT22;51462;51.422;5.514;2023-04-01T05:16:19;9.50;99.90
24226;DHT22;51462;51.422;5.514;2023-04-01T05:18:46;9.50;99.90
24226;DHT22;51462;51.422;5.514;2023-04-01T05:21:13;9.60;99.90
24226;DHT22;51462;51.422;5.514;2023-04-01T05:23:39;9.40;99.90
24226;DHT22;51462;51.422;5.514;2023-04-01T05:26:06;9.40;99.90
24226;DHT22;51462;51.422;5.514;2023-04-01T05:28:31;9.50;99.90
24226;DHT22;51462;51.422;5.514;2023-04-01T05:30:59;9.50;99.90
24226;DHT22;51462;51.422;5.514;2023-04-01T05:33:25;9.40;99.90
24226;DHT22;51462;51.422;5.514;2023-04-01T05:35:51;9.40;99.90
24226;DHT22;51462;51.422;5.514;2023-04-01T05:38:16;9.50;99.90
24226;DHT22;51462;51.422;5.514;2023-04-01T05:40:42;9.40;99.90
24226;DHT22;51462;51.422;5.514;2023-04-01T05:43:07;9.40;99.90
24226;DHT22;51462;51.422;5.514;2023-04-01T05:45:34;9.40;99.90
24226;DHT22;51462;51.422;5.514;2023-04-01T05:47:59;9.40;99.90
24226;DHT22;51462;51.422;5.514;2023-04-01T05:50:25;9.40;99.90
24226;DHT22;51462;51.422;5.514;2023-04-01T05:52:51;9.30;99.90
24226;DHT22;51462;51.422;5.514;2023-04-01T05:55:16;9.30;99.90
24226;DHT22;51462;51.422;5.514;2023-04-01T05:57:45;9.40;99.90
24226;DHT22;51462;51.422;5.514;2023-04-01T06:00:11;9.40;99.90
24226;DHT22;51462;51.422;5.514;2023-04-01T06:02:37;9.40;99.90
24226;DHT22;51462;51.422;5.514;2023-04-01T06:05:22;9.30;99.90
24226;DHT22;51462;51.422;5.514;2023-04-01T06:07:48;9.40;99.90
24226;DHT22;51462;51.422;5.514;2023-04-01T06:10:16;9.50;99.90
24226;DHT22;51462;51.422;5.514;2023-04-01T06:13:04;9.40;99.90
24226;DHT22;51462;51.422;5.514;2023-04-01T06:15:40;9.30;99.90
24226;DHT22;51462;51.422;5.514;2023-04-01T06:21:14;9.20;99.90
24226;DHT22;51462;51.422;5.514;2023-04-01T06:26:54;9.30;99.90
24226;DHT22;51462;51.422;5.514;2023-04-01T06:35:25;9.50;99.90
24226;DHT22;51462;51.422;5.514;2023-04-01T06:38:26;9.40;99.90
24226;DHT22;51462;51.422;5.514;2023-04-01T06:46:41;9.50;99.90
24226;DHT22;51462;51.422;5.514;2023-04-01T06:49:44;9.40;99.90
24226;DHT22;51462;51.422;5.514;2023-04-01T06:54:58;9.40;99.90
24226;DHT22;51462;51.422;5.514;2023-04-01T06:57:35;9.40;99.90
24226;DHT22;51462;51.422;5.514;2023-04-01T07:00:29;9.40;99.90
24226;DHT22;51462;51.422;5.514;2023-04-01T07:03:47;9.50;99.90
24226;DHT22;51462;51.422;5.514;2023-04-01T07:06:06;9.50;99.90
24226;DHT22;51462;51.422;5.514;2023-04-01T07:08:36;9.50;99.90
24226;DHT22;51462;51.422;5.514;2023-04-01T07:11:05;9.50;99.90
24226;DHT22;51462;51.422;5.514;2023-04-01T07:13:51;9.60;99.90
24226;DHT22;51462;51.422;5.514;2023-04-01T07:16:41;9.60;99.90
24226;DHT22;51462;51.422;5.514;2023-04-01T07:19:14;9.60;99.90
24226;DHT22;51462;51.422;5.514;2023-04-01T07:21:48;9.60;99.90
24226;DHT22;51462;51.422;5.514;2023-04-01T07:24:22;9.60;99.90
24226;DHT22;51462;51.422;5.514;2023-04-01T07:26:55;9.70;99.90
24226;DHT22;51462;51.422;5.514;2023-04-01T07:29:21;9.70;99.90
24226;DHT22;51462;51.422;5.514;2023-04-01T07:37:42;9.80;99.90
24226;DHT22;51462;51.422;5.514;2023-04-01T07:40:39;9.90;99.90
24226;DHT22;51462;51.422;5.514;2023-04-01T07:46:17;9.90;99.90
24226;DHT22;51462;51.422;5.514;2023-04-01T07:51:37;9.90;99.90
24226;DHT22;51462;51.422;5.514;2023-04-01T08:02:30;9.90;99.90
24226;DHT22;51462;51.422;5.514;2023-04-01T08:07:58;10.00;99.90
24226;DHT22;51462;51.422;5.514;2023-04-01T08:10:52;10.00;99.90
24226;DHT22;51462;51.422;5.514;2023-04-01T08:13:40;10.00;99.90
24226;DHT22;51462;51.422;5.514;2023-04-01T08:16:26;10.00;99.90
24226;DHT22;51462;51.422;5.514;2023-04-01T08:21:52;10.10;99.90
24226;DHT22;51462;51.422;5.514;2023-04-01T08:24:44;10.10;99.90
24226;DHT22;51462;51.422;5.514;2023-04-01T08:29:57;10.10;99.90
24226;DHT22;51462;51.422;5.514;2023-04-01T08:32:35;10.30;99.90
24226;DHT22;51462;51.422;5.514;2023-04-01T08:35:31;10.20;99.90
24226;DHT22;51462;51.422;5.514;2023-04-01T08:37:59;10.30;99.90
24226;DHT22;51462;51.422;5.514;2023-04-01T08:48:53;10.60;99.90
24226;DHT22;51462;51.422;5.514;2023-04-01T08:51:47;10.60;99.90
24226;DHT22;51462;51.422;5.514;2023-04-01T08:54:42;10.70;99.90
24226;DHT22;51462;51.422;5.514;2023-04-01T09:00:47;10.70;99.90
24226;DHT22;51462;51.422;5.514;2023-04-01T09:13:56;10.70;99.90
24226;DHT22;51462;51.422;5.514;2023-04-01T09:20:17;10.70;99.90
24226;DHT22;51462;51.422;5.514;2023-04-01T09:23:04;10.70;99.90
24226;DHT22;51462;51.422;5.514;2023-04-01T09:26:08;10.70;99.90
24226;DHT22;51462;51.422;5.514;2023-04-01T09:35:42;10.70;99.90
24226;DHT22;51462;51.422;5.514;2023-04-01T09:40:37;10.80;99.90
24226;DHT22;51462;51.422;5.514;2023-04-01T09:43:26;10.70;99.90
24226;DHT22;51462;51.422;5.514;2023-04-01T09:48:24;10.80;99.90
24226;DHT22;51462;51.422;5.514;2023-04-01T09:51:04;10.80;99.90
24226;DHT22;51462;51.422;5.514;2023-04-01T09:54:13;10.90;99.90
24226;DHT22;51462;51.422;5.514;2023-04-01T09:56:52;11.00;99.90
24226;DHT22;51462;51.422;5.514;2023-04-01T10:28:04;10.90;99.90
24226;DHT22;51462;51.422;5.514;2023-04-01T10:30:54;10.90;99.90
24226;DHT22;51462;51.422;5.514;2023-04-01T10:33:38;10.90;99.90
24226;DHT22;51462;51.422;5.514;2023-04-01T10:39:20;10.70;99.90
24226;DHT22;51462;51.422;5.514;2023-04-01T10:42:17;10.70;99.90
24226;DHT22;51462;51.422;5.514;2023-04-01T10:50:31;10.70;99.90
24226;DHT22;51462;51.422;5.514;2023-04-01T10:55:58;10.80;99.90
24226;DHT22;51462;51.422;5.514;2023-04-01T10:59:08;10.70;99.90
24226;DHT22;51462;51.422;5.514;2023-04-01T11:05:13;10.60;99.90
24226;DHT22;51462;51.422;5.514;2023-04-01T11:07:59;10.60;99.90
24226;DHT22;51462;51.422;5.514;2023-04-01T11:19:27;10.70;99.90
24226;DHT22;51462;51.422;5.514;2023-04-01T11:27:25;10.50;99.90
24226;DHT22;51462;51.422;5.514;2023-04-01T11:30:04;10.50;99.90
24226;DHT22;51462;51.422;5.514;2023-04-01T11:35:32;10.50;99.90
24226;DHT22;51462;51.422;5.514;2023-04-01T11:41:24;10.50;99.90
24226;DHT22;51462;51.422;5.514;2023-04-01T11:44:10;10.40;99.90
24226;DHT22;51462;51.422;5.514;2023-04-01T11:52:21;10.50;99.90
24226;DHT22;51462;51.422;5.514;2023-04-01T12:03:37;10.50;99.90
24226;DHT22;51462;51.422;5.514;2023-04-01T12:05:44;10.60;99.90
24226;DHT22;51462;51.422;5.514;2023-04-01T12:16:48;10.60;99.90
24226;DHT22;51462;51.422;5.514;2023-04-01T12:19:32;10.60;99.90
24226;DHT22;51462;51.422;5.514;2023-04-01T12:22:37;10.50;99.90
24226;DHT22;51462;51.422;5.514;2023-04-01T12:28:29;10.60;99.90
24226;DHT22;51462;51.422;5.514;2023-04-01T12:31:04;10.50;99.90
24226;DHT22;51462;51.422;5.514;2023-04-01T12:33:57;10.60;99.90
24226;DHT22;51462;51.422;5.514;2023-04-01T12:39:56;10.70;99.90
24226;DHT22;51462;51.422;5.514;2023-04-01T12:42:25;10.70;99.90
24226;DHT22;51462;51.422;5.514;2023-04-01T12:45:04;10.80;99.90
24226;DHT22;51462;51.422;5.514;2023-04-01T12:47:39;10.80;99.90
24226;DHT22;51462;51.422;5.514;2023-04-01T12:50:11;10.60;99.90
24226;DHT22;51462;51.422;5.514;2023-04-01T12:55:38;10.70;99.90
24226;DHT22;51462;51.422;5.514;2023-04-01T12:58:23;10.80;99.90
24226;DHT22;51462;51.422;5.514;2023-04-01T13:09:51;10.70;99.90
24226;DHT22;51462;51.422;5.514;2023-04-01T13:15:09;10.70;99.90
24226;DHT22;51462;51.422;5.514;2023-04-01T13:31:36;10.70;99.90
24226;DHT22;51462;51.422;5.514;2023-04-01T13:37:04;10.70;99.90
24226;DHT22;51462;51.422;5.514;2023-04-01T13:39:49;10.70;99.90
24226;DHT22;51462;51.422;5.514;2023-04-01T13:42:26;10.80;99.90
24226;DHT22;51462;51.422;5.514;2023-04-01T13:48:07;10.60;99.90
24226;DHT22;51462;51.422;5.514;2023-04-01T13:50:57;10.60;99.90
24226;DHT22;51462;51.422;5.514;2023-04-01T13:56:42;10.60;99.90
24226;DHT22;51462;51.422;5.514;2023-04-01T13:59:46;10.60;99.90
24226;DHT22;51462;51.422;5.514;2023-04-01T14:02:45;10.70;99.90
24226;DHT22;51462;51.422;5.514;2023-04-01T14:05:28;10.50;99.90
24226;DHT22;51462;51.422;5.514;2023-04-01T14:08:32;10.60;99.90
24226;DHT22;51462;51.422;5.514;2023-04-01T14:11:15;10.70;99.90
24226;DHT22;51462;51.422;5.514;2023-04-01T14:14:05;10.70;99.90
24226;DHT22;51462;51.422;5.514;2023-04-01T14:30:56;10.50;99.90
24226;DHT22;51462;51.422;5.514;2023-04-01T14:47:34;10.40;99.90
24226;DHT22;51462;51.422;5.514;2023-04-01T14:50:24;10.30;99.90
24226;DHT22;51462;51.422;5.514;2023-04-01T14:53:11;10.50;99.90
24226;DHT22;51462;51.422;5.514;2023-04-01T14:58:14;10.50;99.90
24226;DHT22;51462;51.422;5.514;2023-04-01T15:03:39;10.50;99.90
24226;DHT22;51462;51.422;5.514;2023-04-01T15:08:58;10.60;99.90
24226;DHT22;51462;51.422;5.514;2023-04-01T15:11:52;10.50;99.90
24226;DHT22;51462;51.422;5.514;2023-04-01T15:17:24;10.40;99.90
24226;DHT22;51462;51.422;5.514;2023-04-01T15:28:37;10.40;99.90
24226;DHT22;51462;51.422;5.514;2023-04-01T15:31:25;10.50;99.90
24226;DHT22;51462;51.422;5.514;2023-04-01T15:34:20;10.50;99.90
24226;DHT22;51462;51.422;5.514;2023-04-01T15:39:50;10.50;99.90
24226;DHT22;51462;51.422;5.514;2023-04-01T15:42:26;10.40;99.90
24226;DHT22;51462;51.422;5.514;2023-04-01T15:44:58;10.40;99.90
24226;DHT22;51462;51.422;5.514;2023-04-01T15:47:31;10.60;99.90
24226;DHT22;51462;51.422;5.514;2023-04-01T15:55:37;10.50;99.90
24226;DHT22;51462;51.422;5.514;2023-04-01T16:03:37;10.50;99.90
24226;DHT22;51462;51.422;5.514;2023-04-01T16:06:31;10.60;99.90
24226;DHT22;51462;51.422;5.514;2023-04-01T16:17:46;10.40;99.90
24226;DHT22;51462;51.422;5.514;2023-04-01T16:20:20;10.40;99.90
24226;DHT22;51462;51.422;5.514;2023-04-01T16:23:02;10.50;99.90
24226;DHT22;51462;51.422;5.514;2023-04-01T16:25:33;10.50;99.90
24226;DHT22;51462;51.422;5.514;2023-04-01T16:28:32;10.40;99.90
24226;DHT22;51462;51.422;5.514;2023-04-01T16:31:32;10.20;99.90
24226;DHT22;51462;51.422;5.514;2023-04-01T16:34:04;10.30;99.90
24226;DHT22;51462;51.422;5.514;2023-04-01T16:36:41;10.30;99.90
24226;DHT22;51462;51.422;5.514;2023-04-01T16:41:41;10.30;99.90
24226;DHT22;51462;51.422;5.514;2023-04-01T16:44:27;10.30;99.90
24226;DHT22;51462;51.422;5.514;2023-04-01T16:46:56;10.20;99.90
24226;DHT22;51462;51.422;5.514;2023-04-01T16:49:42;10.20;99.90
24226;DHT22;51462;51.422;5.514;2023-04-01T16:57:37;10.20;99.90
24226;DHT22;51462;51.422;5.514;2023-04-01T17:08:38;10.10;99.90
24226;DHT22;51462;51.422;5.514;2023-04-01T17:11:19;10.40;99.90
24226;DHT22;51462;51.422;5.514;2023-04-01T17:14:20;10.30;99.90
24226;DHT22;51462;51.422;5.514;2023-04-01T17:22:41;10.40;99.90
24226;DHT22;51462;51.422;5.514;2023-04-01T17:25:20;10.40;99.90
24226;DHT22;51462;51.422;5.514;2023-04-01T17:44:05;10.40;99.90
24226;DHT22;51462;51.422;5.514;2023-04-01T17:54:59;10.50;99.90
24226;DHT22;51462;51.422;5.514;2023-04-01T17:58:03;10.50;99.90
24226;DHT22;51462;51.422;5.514;2023-04-01T18:00:56;10.50;99.90
24226;DHT22;51462;51.422;5.514;2023-04-01T18:03:53;10.50;99.90
24226;DHT22;51462;51.422;5.514;2023-04-01T18:22:55;11.00;99.90
24226;DHT22;51462;51.422;5.514;2023-04-01T18:25:41;11.00;99.90
24226;DHT22;51462;51.422;5.514;2023-04-01T18:28:26;11.00;99.90
24226;DHT22;51462;51.422;5.514;2023-04-01T18:39:06;10.90;99.90
24226;DHT22;51462;51.422;5.514;2023-04-01T18:44:44;11.00;99.90
24226;DHT22;51462;51.422;5.514;2023-04-01T18:47:37;10.90;99.90
24226;DHT22;51462;51.422;5.514;2023-04-01T18:53:14;10.90;99.90
24226;DHT22;51462;51.422;5.514;2023-04-01T18:55:52;10.90;99.90
24226;DHT22;51462;51.422;5.514;2023-04-01T18:58:28;11.00;99.90
24226;DHT22;51462;51.422;5.514;2023-04-01T19:01:12;11.00;99.90
24226;DHT22;51462;51.422;5.514;2023-04-01T19:03:48;11.10;99.90
24226;DHT22;51462;51.422;5.514;2023-04-01T19:06:27;11.20;99.90
24226;DHT22;51462;51.422;5.514;2023-04-01T19:08:54;11.20;99.90
24226;DHT22;51462;51.422;5.514;2023-04-01T19:11:40;11.20;99.90
24226;DHT22;51462;51.422;5.514;2023-04-01T19:14:42;11.20;99.90
24226;DHT22;51462;51.422;5.514;2023-04-01T19:20:03;11.20;99.90
24226;DHT22;51462;51.422;5.514;2023-04-01T19:22:58;11.10;99.90
24226;DHT22;51462;51.422;5.514;2023-04-01T19:25:51;11.30;99.90
24226;DHT22;51462;51.422;5.514;2023-04-01T19:36:52;11.10;99.90
24226;DHT22;51462;51.422;5.514;2023-04-01T19:42:01;11.10;99.90
24226;DHT22;51462;51.422;5.514;2023-04-01T19:44:45;11.00;99.90
24226;DHT22;51462;51.422;5.514;2023-04-01T19:47:17;11.10;99.90
24226;DHT22;51462;51.422;5.514;2023-04-01T19:50:14;11.30;99.90
24226;DHT22;51462;51.422;5.514;2023-04-01T19:52:36;11.00;99.90
24226;DHT22;51462;51.422;5.514;2023-04-01T19:57:46;11.10;99.90
24226;DHT22;51462;51.422;5.514;2023-04-01T20:00:15;11.20;99.90
24226;DHT22;51462;51.422;5.514;2023-04-01T20:13:28;11.00;99.90
24226;DHT22;51462;51.422;5.514;2023-04-01T20:16:06;10.80;99.90
24226;DHT22;51462;51.422;5.514;2023-04-01T20:24:00;11.00;99.90
24226;DHT22;51462;51.422;5.514;2023-04-01T20:26:36;11.10;99.90
24226;DHT22;51462;51.422;5.514;2023-04-01T20:34:44;10.90;99.90
24226;DHT22;51462;51.422;5.514;2023-04-01T20:37:57;10.90;99.90
24226;DHT22;51462;51.422;5.514;2023-04-01T20:40:30;10.70;99.90
24226;DHT22;51462;51.422;5.514;2023-04-01T20:51:13;10.70;99.90
24226;DHT22;51462;51.422;5.514;2023-04-01T20:59:36;10.80;99.90
24226;DHT22;51462;51.422;5.514;2023-04-01T21:08:03;10.90;99.90
24226;DHT22;51462;51.422;5.514;2023-04-01T21:13:58;11.00;99.90
24226;DHT22;51462;51.422;5.514;2023-04-01T21:19:20;10.80;99.90
24226;DHT22;51462;51.422;5.514;2023-04-01T21:27:13;10.70;99.90
24226;DHT22;51462;51.422;5.514;2023-04-01T21:32:51;10.80;99.90
24226;DHT22;51462;51.422;5.514;2023-04-01T21:43:39;10.80;99.90
24226;DHT22;51462;51.422;5.514;2023-04-01T21:54:49;11.10;99.90
24226;DHT22;51462;51.422;5.514;2023-04-01T22:03:24;10.80;99.90
24226;DHT22;51462;51.422;5.514;2023-04-01T22:06:19;10.50;99.90
24226;DHT22;51462;51.422;5.514;2023-04-01T22:09:05;10.50;99.90
24226;DHT22;51462;51.422;5.514;2023-04-01T22:15:06;10.70;99.90
24226;DHT22;51462;51.422;5.514;2023-04-01T22:17:27;10.70;99.90
24226;DHT22;51462;51.422;5.514;2023-04-01T22:23:04;10.80;99.90
24226;DHT22;51462;51.422;5.514;2023-04-01T22:28:24;10.60;99.90
24226;DHT22;51462;51.422;5.514;2023-04-01T22:31:00;10.50;99.90
24226;DHT22;51462;51.422;5.514;2023-04-01T22:36:47;10.90;99.90
24226;DHT22;51462;51.422;5.514;2023-04-01T22:42:43;10.60;99.90
24226;DHT22;51462;51.422;5.514;2023-04-01T22:56:20;10.70;99.90
24226;DHT22;51462;51.422;5.514;2023-04-01T22:58:54;10.40;99.90
24226;DHT22;51462;51.422;5.514;2023-04-01T23:01:29;10.20;99.90
24226;DHT22;51462;51.422;5.514;2023-04-01T23:03:56;10.10;99.90
24226;DHT22;51462;51.422;5.514;2023-04-01T23:06:50;9.90;99.90
24226;DHT22;51462;51.422;5.514;2023-04-01T23:09:23;10.30;99.90
24226;DHT22;51462;51.422;5.514;2023-04-01T23:14:57;10.40;99.90
24226;DHT22;51462;51.422;5.514;2023-04-01T23:33:26;10.30;99.90
24226;DHT22;51462;51.422;5.514;2023-04-01T23:36:00;9.90;99.90
24226;DHT22;51462;51.422;5.514;2023-04-01T23:38:32;10.20;99.90
24226;DHT22;51462;51.422;5.514;2023-04-01T23:40:59;10.00;99.90
24226;DHT22;51462;51.422;5.514;2023-04-01T23:43:31;10.20;99.90
24226;DHT22;51462;51.422;5.514;2023-04-01T23:45:58;9.90;99.90
24226;DHT22;51462;51.422;5.514;2023-04-01T23:48:32;10.10;99.90
24226;DHT22;51462;51.422;5.514;2023-04-01T23:50:58;9.70;99.90
24226;DHT22;51462;51.422;5.514;2023-04-01T23:53:26;9.70;99.90
24226;DHT22;51462;51.422;5.514;2023-04-01T23:55:54;9.80;99.90
